createdAt,value
2017-09-27T00:01:12.802Z,75.80
2017-09-27T00:03:40.313Z,75.80
2017-09-27T00:06:07.806Z,76.70
2017-09-27T00:08:35.318Z,76.70
2017-09-27T00:11:02.809Z,77.20
2017-09-27T00:13:30.321Z,77.40
2017-09-27T00:15:58.577Z,77.50
2017-09-27T00:18:26.085Z,77.50
2017-09-27T00:20:53.584Z,77.10
2017-09-27T00:23:21.097Z,77.20
2017-09-27T00:25:48.594Z,77.20
2017-09-27T00:28:16.106Z,77.30
2017-09-27T00:30:43.597Z,77.20
2017-09-27T00:33:11.105Z,77.10
2017-09-27T00:35:39.361Z,77.20
2017-09-27T00:38:06.874Z,77.20
2017-09-27T00:40:34.366Z,77.20
2017-09-27T00:43:01.878Z,77.10
2017-09-27T00:45:29.369Z,77.10
2017-09-27T00:47:56.881Z,77.10
2017-09-27T00:50:25.134Z,77.00
2017-09-27T00:52:52.654Z,77.00
2017-09-27T00:55:20.150Z,76.90
2017-09-27T00:57:48.454Z,77.30
2017-09-27T01:00:15.953Z,77.30
2017-09-27T01:02:43.487Z,77.60
2017-09-27T01:05:10.981Z,77.60
2017-09-27T01:07:38.506Z,77.50
2017-09-27T01:10:06.011Z,77.30
2017-09-27T01:12:33.525Z,77.30
2017-09-27T01:15:01.025Z,77.30
2017-09-27T01:17:28.545Z,77.60
2017-09-27T01:19:56.047Z,77.90
2017-09-27T01:22:23.537Z,77.70
2017-09-27T01:24:51.074Z,77.80
2017-09-27T01:27:18.569Z,77.80
2017-09-27T01:29:46.085Z,77.70
2017-09-27T01:32:13.578Z,77.50
2017-09-27T01:34:41.089Z,77.60
2017-09-27T01:37:08.577Z,77.50
2017-09-27T01:39:36.862Z,77.70
2017-09-27T01:42:04.353Z,77.70
2017-09-27T01:44:31.869Z,77.70
2017-09-27T01:47:00.129Z,77.80
2017-09-27T01:49:27.641Z,77.80
2017-09-27T01:51:55.134Z,77.80
2017-09-27T01:54:22.661Z,77.90
2017-09-27T01:56:50.157Z,77.90
2017-09-27T01:59:17.674Z,77.80
2017-09-27T02:01:45.166Z,77.80
2017-09-27T02:04:12.680Z,78.00
2017-09-27T02:06:40.181Z,78.10
2017-09-27T02:09:07.694Z,77.90
2017-09-27T02:11:35.190Z,77.90
2017-09-27T02:14:02.707Z,78.00
2017-09-27T02:16:30.209Z,78.80
2017-09-27T02:18:57.722Z,78.40
2017-09-27T02:21:25.218Z,78.50
2017-09-27T02:23:52.739Z,78.40
2017-09-27T02:26:20.250Z,78.70
2017-09-27T02:28:47.779Z,78.50
2017-09-27T02:31:15.271Z,78.60
2017-09-27T02:33:42.789Z,78.60
2017-09-27T02:36:10.281Z,78.80
2017-09-27T02:38:37.804Z,78.80
2017-09-27T02:41:05.346Z,79.30
2017-09-27T02:43:32.862Z,79.00
2017-09-27T02:46:00.357Z,79.00
2017-09-27T02:48:27.869Z,78.80
2017-09-27T02:50:55.374Z,79.00
2017-09-27T02:53:22.900Z,79.30
2017-09-27T02:55:50.397Z,79.10
2017-09-27T02:58:17.913Z,79.30
2017-09-27T03:00:45.422Z,79.50
2017-09-27T03:03:12.938Z,79.30
2017-09-27T03:05:40.426Z,79.60
2017-09-27T03:08:07.954Z,80.30
2017-09-27T03:10:35.448Z,79.50
2017-09-27T03:13:02.968Z,79.50
2017-09-27T03:15:30.461Z,79.50
2017-09-27T03:17:57.978Z,79.50
2017-09-27T03:20:25.476Z,79.50
2017-09-27T03:22:52.984Z,79.80
2017-09-27T03:25:20.473Z,79.40
2017-09-27T03:27:48.016Z,79.30
2017-09-27T03:30:15.495Z,79.60
2017-09-27T03:32:43.779Z,79.70
2017-09-27T03:35:12.039Z,79.70
2017-09-27T03:37:40.331Z,80.00
2017-09-27T03:40:07.817Z,80.00
2017-09-27T03:42:35.330Z,80.30
2017-09-27T03:45:03.625Z,80.20
2017-09-27T03:47:31.905Z,79.70
2017-09-27T03:49:59.420Z,79.50
2017-09-27T03:52:26.937Z,79.60
2017-09-27T03:54:54.435Z,79.10
2017-09-27T03:57:21.958Z,79.10
2017-09-27T03:59:49.454Z,79.10
2017-09-27T04:02:16.978Z,79.30
2017-09-27T04:04:44.470Z,79.40
2017-09-27T04:07:11.986Z,79.40
2017-09-27T04:09:39.482Z,79.50
2017-09-27T04:12:07.009Z,79.50
2017-09-27T04:14:34.510Z,79.30
2017-09-27T04:17:02.037Z,79.40
2017-09-27T04:19:29.525Z,79.30
2017-09-27T04:21:57.037Z,79.10
2017-09-27T04:24:24.534Z,79.00
2017-09-27T04:26:52.049Z,79.10
2017-09-27T04:29:19.554Z,79.50
2017-09-27T04:31:47.065Z,79.60
2017-09-27T04:34:14.557Z,79.50
2017-09-27T04:36:42.069Z,79.80
2017-09-27T04:39:10.326Z,79.90
2017-09-27T04:41:38.610Z,80.00
2017-09-27T04:44:06.865Z,80.50
2017-09-27T04:46:34.381Z,80.40
2017-09-27T04:49:02.022Z,80.80
2017-09-27T04:51:29.546Z,80.10
2017-09-27T04:53:57.038Z,80.10
2017-09-27T04:56:24.562Z,80.60
2017-09-27T04:58:52.058Z,80.50
2017-09-27T05:01:19.570Z,80.60
2017-09-27T05:03:47.069Z,80.60
2017-09-27T05:06:14.582Z,80.80
2017-09-27T05:08:42.082Z,80.90
2017-09-27T05:11:10.365Z,80.80
2017-09-27T05:13:37.852Z,80.80
2017-09-27T05:16:05.342Z,80.90
2017-09-27T05:18:32.872Z,81.00
2017-09-27T05:21:00.365Z,81.00
2017-09-27T05:23:28.550Z,81.10
2017-09-27T05:25:56.817Z,81.20
2017-09-27T05:28:24.330Z,81.20
2017-09-27T05:30:51.830Z,81.30
2017-09-27T05:33:19.345Z,81.30
2017-09-27T05:35:46.837Z,81.30
2017-09-27T05:38:14.358Z,81.20
2017-09-27T05:40:41.896Z,81.20
2017-09-27T05:43:09.397Z,81.30
2017-09-27T05:45:37.653Z,81.30
2017-09-27T05:48:05.165Z,82.00
2017-09-27T05:50:33.425Z,81.30
2017-09-27T05:53:00.938Z,81.30
2017-09-27T05:55:28.430Z,81.00
2017-09-27T05:57:55.950Z,81.50
2017-09-27T06:00:23.446Z,80.80
2017-09-27T06:02:50.961Z,80.90
2017-09-27T06:05:19.021Z,80.50
2017-09-27T06:07:47.305Z,80.90
2017-09-27T06:10:14.797Z,80.80
2017-09-27T06:12:42.310Z,80.60
2017-09-27T06:15:10.570Z,80.60
2017-09-27T06:17:38.086Z,80.60
2017-09-27T06:20:05.573Z,80.60
2017-09-27T06:22:33.091Z,80.30
2017-09-27T06:25:00.585Z,80.20
2017-09-27T06:27:28.862Z,80.40
2017-09-27T06:29:56.353Z,80.20
2017-09-27T06:32:24.630Z,80.00
2017-09-27T06:34:52.890Z,80.00
2017-09-27T06:37:20.402Z,79.90
2017-09-27T06:39:47.893Z,80.20
2017-09-27T06:42:15.402Z,79.90
2017-09-27T06:44:42.889Z,79.90
2017-09-27T06:47:10.408Z,79.80
2017-09-27T06:49:37.904Z,79.90
2017-09-27T06:52:05.421Z,79.80
2017-09-27T06:54:33.698Z,79.50
2017-09-27T06:57:01.249Z,79.50
2017-09-27T06:59:29.520Z,79.20
2017-09-27T07:01:57.803Z,79.00
2017-09-27T07:04:26.069Z,79.10
2017-09-27T07:06:54.392Z,79.00
2017-09-27T07:09:21.889Z,78.90
2017-09-27T07:11:50.592Z,78.70
2017-09-27T07:14:18.091Z,78.30
2017-09-27T07:16:45.609Z,78.20
2017-09-27T07:19:13.878Z,77.90
2017-09-27T07:21:41.393Z,77.90
2017-09-27T07:24:08.885Z,77.50
2017-09-27T07:26:36.398Z,77.20
2017-09-27T07:29:03.893Z,76.90
2017-09-27T07:31:31.409Z,76.30
2017-09-27T07:33:58.905Z,75.60
2017-09-27T07:36:26.428Z,75.00
2017-09-27T07:38:53.926Z,74.60
2017-09-27T07:41:21.436Z,74.30
2017-09-27T07:43:48.929Z,73.70
2017-09-27T07:46:17.210Z,71.30
2017-09-27T07:48:44.706Z,71.50
2017-09-27T07:51:13.002Z,71.60
2017-09-27T07:53:40.493Z,71.50
2017-09-27T07:56:08.010Z,70.20
2017-09-27T07:58:36.266Z,68.90
2017-09-27T08:01:03.786Z,68.90
2017-09-27T08:03:31.306Z,68.70
2017-09-27T08:05:58.826Z,68.70
2017-09-27T08:08:26.318Z,67.50
2017-09-27T08:10:54.624Z,66.40
2017-09-27T08:13:22.126Z,66.40
2017-09-27T08:15:49.646Z,66.20
2017-09-27T08:18:17.138Z,66.10
2017-09-27T08:20:44.654Z,64.80
2017-09-27T08:23:12.150Z,64.90
2017-09-27T08:25:39.681Z,65.20
2017-09-27T08:28:07.175Z,65.30
2017-09-27T08:30:34.695Z,64.70
2017-09-27T08:33:02.189Z,65.20
2017-09-27T08:35:29.685Z,63.90
2017-09-27T08:37:57.204Z,64.10
2017-09-27T08:40:24.701Z,64.10
2017-09-27T08:42:52.217Z,63.90
2017-09-27T08:45:19.710Z,61.80
2017-09-27T08:47:48.007Z,60.10
2017-09-27T08:50:15.513Z,60.10
2017-09-27T08:52:43.030Z,60.00
2017-09-27T08:55:10.521Z,59.40
2017-09-27T08:57:38.042Z,59.70
2017-09-27T09:00:05.533Z,59.10
2017-09-27T09:02:33.049Z,59.00
2017-09-27T09:05:00.554Z,59.50
2017-09-27T09:07:28.076Z,59.30
2017-09-27T09:09:55.573Z,59.20
2017-09-27T09:12:23.853Z,58.90
2017-09-27T09:14:51.351Z,58.90
2017-09-27T09:17:19.629Z,59.40
2017-09-27T09:19:47.122Z,59.40
2017-09-27T09:22:14.638Z,59.60
2017-09-27T09:24:42.914Z,58.00
2017-09-27T09:27:11.203Z,56.60
2017-09-27T09:29:38.766Z,56.60
2017-09-27T09:32:06.279Z,55.80
2017-09-27T09:34:34.688Z,55.70
2017-09-27T09:37:02.970Z,55.80
2017-09-27T09:39:31.226Z,55.10
2017-09-27T09:41:58.741Z,55.00
2017-09-27T09:44:26.234Z,54.30
2017-09-27T09:46:53.754Z,53.40
2017-09-27T09:49:21.254Z,53.10
2017-09-27T09:51:48.770Z,53.00
2017-09-27T09:54:16.261Z,52.80
2017-09-27T09:56:43.773Z,50.80
2017-09-27T09:59:11.277Z,49.10
2017-09-27T10:01:38.789Z,48.60
2017-09-27T10:04:06.282Z,46.90
2017-09-27T10:06:33.798Z,47.30
2017-09-27T10:09:01.285Z,47.40
2017-09-27T10:11:28.803Z,44.30
2017-09-27T10:13:57.061Z,40.50
2017-09-27T10:16:24.577Z,40.50
2017-09-27T10:18:52.069Z,38.30
2017-09-27T10:21:19.581Z,35.40
2017-09-27T10:23:47.081Z,33.60
2017-09-27T10:26:14.601Z,31.50
2017-09-27T10:28:42.097Z,30.60
2017-09-27T10:31:09.610Z,30.00
2017-09-27T10:33:37.102Z,28.70
2017-09-27T10:36:04.614Z,28.40
2017-09-27T10:38:32.110Z,28.40
2017-09-27T10:40:59.618Z,27.10
2017-09-27T10:43:27.875Z,24.90
2017-09-27T10:45:55.393Z,24.80
2017-09-27T10:48:22.897Z,24.30
2017-09-27T10:50:51.178Z,24.10
2017-09-27T10:53:19.433Z,24.50
2017-09-27T10:55:46.945Z,24.50
2017-09-27T10:58:14.437Z,23.80
2017-09-27T11:00:41.949Z,24.80
2017-09-27T11:03:09.441Z,25.20
2017-09-27T11:05:36.957Z,25.30
2017-09-27T11:08:05.213Z,27.00
2017-09-27T11:10:32.738Z,26.90
2017-09-27T11:13:00.230Z,28.70
2017-09-27T11:15:27.741Z,29.30
2017-09-27T11:17:55.233Z,30.00
2017-09-27T11:20:22.751Z,30.40
2017-09-27T11:22:50.243Z,31.20
2017-09-27T11:25:17.762Z,30.70
2017-09-27T11:27:45.257Z,30.00
2017-09-27T11:30:12.770Z,29.40
2017-09-27T11:32:40.262Z,29.70
2017-09-27T11:35:07.773Z,30.20
2017-09-27T11:37:36.037Z,32.00
2017-09-27T11:40:04.318Z,32.30
2017-09-27T11:42:32.577Z,32.90
2017-09-27T11:45:00.091Z,32.90
2017-09-27T11:47:27.581Z,33.50
2017-09-27T11:49:55.093Z,33.90
2017-09-27T11:52:22.590Z,34.20
2017-09-27T11:54:50.874Z,34.70
2017-09-27T11:57:18.369Z,34.70
2017-09-27T11:59:46.654Z,34.90
2017-09-27T12:02:14.154Z,34.90
2017-09-27T12:04:41.672Z,36.20
2017-09-27T12:07:09.165Z,36.90
2017-09-27T12:09:36.681Z,37.10
2017-09-27T12:12:04.938Z,36.50
2017-09-27T12:14:32.454Z,36.40
2017-09-27T12:16:59.952Z,36.50
2017-09-27T12:19:27.481Z,36.40
2017-09-27T12:21:54.975Z,36.80
2017-09-27T12:24:22.510Z,38.40
2017-09-27T12:26:50.002Z,39.40
2017-09-27T12:29:18.285Z,39.70
2017-09-27T12:31:46.543Z,38.70
2017-09-27T12:34:14.821Z,37.50
2017-09-27T12:36:42.326Z,37.50
2017-09-27T12:39:09.838Z,36.30
2017-09-27T12:41:38.097Z,34.70
2017-09-27T12:44:05.613Z,34.30
2017-09-27T12:46:33.105Z,33.00
2017-09-27T12:49:00.601Z,32.10
2017-09-27T12:51:28.881Z,31.90
2017-09-27T12:53:57.137Z,32.00
2017-09-27T12:56:24.653Z,32.00
2017-09-27T12:58:52.146Z,32.40
2017-09-27T13:01:19.658Z,32.30
2017-09-27T13:03:47.154Z,32.40
2017-09-27T13:06:14.670Z,33.00
2017-09-27T13:08:42.161Z,34.20
2017-09-27T13:11:09.669Z,35.50
2017-09-27T13:13:37.921Z,37.90
2017-09-27T13:16:05.442Z,37.90
2017-09-27T13:18:32.937Z,37.90
2017-09-27T13:21:00.453Z,37.30
2017-09-27T13:23:27.953Z,36.50
2017-09-27T13:25:55.464Z,37.10
2017-09-27T13:28:22.959Z,37.50
2017-09-27T13:30:50.477Z,38.20
2017-09-27T13:33:17.969Z,38.90
2017-09-27T13:35:45.496Z,39.40
2017-09-27T13:38:12.985Z,39.90
2017-09-27T13:40:40.498Z,40.40
2017-09-27T13:43:08.002Z,41.10
2017-09-27T13:45:35.518Z,41.50
2017-09-27T13:48:03.009Z,42.30
2017-09-27T13:50:30.521Z,43.10
2017-09-27T13:52:58.013Z,42.60
2017-09-27T13:55:25.521Z,42.00
2017-09-27T13:57:53.778Z,41.40
2017-09-27T14:00:21.297Z,41.40
2017-09-27T14:02:48.790Z,41.20
2017-09-27T14:05:16.303Z,41.60
2017-09-27T14:07:43.794Z,42.20
2017-09-27T14:10:11.305Z,42.60
2017-09-27T14:12:38.801Z,42.40
2017-09-27T14:15:06.317Z,42.80
2017-09-27T14:17:34.574Z,43.60
2017-09-27T14:20:02.091Z,44.20
2017-09-27T14:22:29.581Z,43.40
2017-09-27T14:24:57.093Z,43.90
2017-09-27T14:27:24.589Z,44.10
2017-09-27T14:29:52.102Z,43.80
2017-09-27T14:32:19.593Z,44.10
2017-09-27T14:34:47.106Z,43.50
2017-09-27T14:37:14.598Z,42.80
2017-09-27T14:39:42.114Z,41.50
2017-09-27T14:42:10.369Z,41.10
2017-09-27T14:44:37.882Z,41.10
2017-09-27T14:47:05.370Z,40.60
2017-09-27T14:49:32.883Z,41.00
2017-09-27T14:52:00.373Z,41.20
2017-09-27T14:54:27.890Z,41.40
2017-09-27T14:56:55.377Z,41.60
2017-09-27T14:59:22.889Z,42.10
2017-09-27T15:01:51.146Z,41.80
2017-09-27T15:04:18.657Z,41.80
2017-09-27T15:06:46.150Z,42.10
2017-09-27T15:09:13.667Z,42.50
2017-09-27T15:11:41.158Z,42.10
2017-09-27T15:14:08.669Z,42.10
2017-09-27T15:16:36.925Z,42.70
2017-09-27T15:19:04.437Z,42.70
2017-09-27T15:21:31.926Z,43.50
2017-09-27T15:23:59.438Z,43.50
2017-09-27T15:26:26.938Z,43.70
2017-09-27T15:28:54.452Z,44.00
2017-09-27T15:31:21.945Z,44.20
2017-09-27T15:33:49.458Z,44.50
2017-09-27T15:36:16.950Z,44.30
2017-09-27T15:38:44.470Z,44.60
2017-09-27T15:41:12.734Z,45.00
2017-09-27T15:43:41.026Z,45.20
2017-09-27T15:46:09.281Z,45.60
2017-09-27T15:48:37.562Z,45.80
2017-09-27T15:51:05.817Z,45.90
2017-09-27T15:53:33.330Z,45.90
2017-09-27T15:56:00.819Z,45.80
2017-09-27T15:58:28.333Z,46.10
2017-09-27T16:00:55.837Z,46.20
2017-09-27T16:03:23.354Z,46.70
2017-09-27T16:05:50.850Z,46.40
2017-09-27T16:08:18.362Z,46.40
2017-09-27T16:10:46.617Z,46.70
2017-09-27T16:13:14.130Z,46.70
2017-09-27T16:15:41.618Z,46.90
2017-09-27T16:18:09.130Z,46.80
2017-09-27T16:20:36.622Z,47.40
2017-09-27T16:23:04.137Z,47.50
2017-09-27T16:25:31.625Z,47.40
2017-09-27T16:27:59.141Z,48.00
2017-09-27T16:30:27.393Z,48.60
2017-09-27T16:32:54.906Z,48.40
2017-09-27T16:35:22.398Z,48.80
2017-09-27T16:37:49.918Z,49.00
2017-09-27T16:40:17.413Z,49.30
2017-09-27T16:42:44.927Z,49.70
2017-09-27T16:45:12.422Z,50.00
2017-09-27T16:47:39.938Z,50.40
2017-09-27T16:50:07.433Z,50.70
2017-09-27T16:52:34.949Z,50.90
2017-09-27T16:55:02.442Z,51.20
2017-09-27T16:57:29.954Z,51.20
2017-09-27T16:59:58.211Z,52.10
2017-09-27T17:02:25.726Z,52.00
2017-09-27T17:04:53.217Z,52.50
2017-09-27T17:07:20.710Z,52.80
2017-09-27T17:09:48.990Z,53.10
2017-09-27T17:12:17.248Z,53.60
2017-09-27T17:14:45.525Z,54.10
2017-09-27T17:17:13.782Z,54.60
2017-09-27T17:19:41.303Z,54.50
2017-09-27T17:22:08.794Z,54.80
2017-09-27T17:24:36.306Z,55.00
2017-09-27T17:27:03.798Z,55.30
2017-09-27T17:29:31.310Z,55.50
2017-09-27T17:31:58.808Z,55.90
2017-09-27T17:34:26.318Z,56.20
2017-09-27T17:36:54.596Z,56.80
2017-09-27T17:39:22.878Z,57.10
2017-09-27T17:41:51.137Z,57.40
2017-09-27T17:44:19.429Z,57.80
2017-09-27T17:46:47.689Z,58.00
2017-09-27T17:49:15.966Z,59.00
2017-09-27T17:51:44.227Z,58.70
2017-09-27T17:54:11.755Z,58.70
2017-09-27T17:56:39.246Z,58.90
2017-09-27T17:59:06.762Z,59.20
2017-09-27T18:01:34.253Z,59.60
2017-09-27T18:04:20.478Z,59.60
2017-09-27T18:06:54.288Z,60.20
2017-09-27T18:12:35.949Z,60.70
2017-09-27T18:15:18.322Z,61.10
2017-09-27T18:17:46.796Z,61.40
2017-09-27T18:20:15.054Z,62.30
2017-09-27T18:22:43.314Z,62.50
2017-09-27T18:25:10.849Z,62.50
2017-09-27T18:27:38.354Z,63.00
2017-09-27T18:30:06.639Z,63.80
2017-09-27T18:32:34.902Z,63.80
2017-09-27T18:35:03.187Z,64.40
2017-09-27T18:37:31.450Z,64.60
2017-09-27T18:39:58.969Z,64.60
2017-09-27T18:42:26.457Z,65.30
2017-09-27T18:44:53.970Z,65.60
2017-09-27T18:47:21.466Z,65.70
2017-09-27T18:49:49.029Z,65.80
2017-09-27T18:52:16.522Z,66.10
2017-09-27T18:54:44.039Z,66.00
2017-09-27T18:57:11.530Z,66.10
2017-09-27T18:59:39.811Z,66.50
2017-09-27T19:02:07.306Z,66.50
2017-09-27T19:04:34.818Z,66.80
2017-09-27T19:07:03.079Z,67.50
2017-09-27T19:09:30.589Z,67.40
2017-09-27T19:11:58.077Z,67.50
2017-09-27T19:14:26.358Z,67.70
2017-09-27T19:16:53.861Z,67.60
2017-09-27T19:19:21.378Z,67.90
2017-09-27T19:21:48.877Z,68.20
2017-09-27T19:24:16.389Z,68.30
2017-09-27T19:26:43.878Z,68.40
2017-09-27T19:29:12.154Z,69.00
2017-09-27T19:31:40.430Z,68.90
2017-09-27T19:34:08.710Z,69.10
2017-09-27T19:36:36.970Z,69.20
2017-09-27T19:39:04.483Z,69.20
2017-09-27T19:41:31.983Z,70.30
2017-09-27T19:43:59.505Z,69.50
2017-09-27T19:46:27.007Z,69.10
2017-09-27T19:48:54.521Z,69.90
2017-09-27T19:51:22.009Z,70.20
2017-09-27T19:53:49.522Z,69.90
2017-09-27T19:56:17.013Z,70.40
2017-09-27T19:58:44.526Z,70.50
2017-09-27T20:01:12.017Z,70.40
2017-09-27T20:03:39.529Z,70.50
2017-09-27T20:06:07.791Z,70.70
2017-09-27T20:08:35.316Z,70.60
2017-09-27T20:11:02.810Z,70.50
2017-09-27T20:13:30.321Z,70.90
2017-09-27T20:15:57.817Z,71.00
2017-09-27T20:18:25.333Z,71.20
2017-09-27T20:20:52.821Z,71.10
2017-09-27T20:23:20.334Z,71.30
2017-09-27T20:25:47.831Z,71.60
2017-09-27T20:28:15.346Z,71.80
2017-09-27T20:30:42.838Z,72.90
2017-09-27T20:33:10.361Z,72.80
2017-09-27T20:35:37.850Z,72.70
2017-09-27T20:38:05.361Z,72.80
2017-09-27T20:40:33.617Z,72.80
2017-09-27T20:43:01.129Z,72.70
2017-09-27T20:45:28.622Z,73.10
2017-09-27T20:47:56.196Z,72.70
2017-09-27T20:50:23.673Z,73.00
2017-09-27T20:52:51.949Z,73.50
2017-09-27T20:55:20.209Z,73.80
2017-09-27T20:57:47.721Z,73.80
2017-09-27T21:00:15.233Z,74.00
2017-09-27T21:02:43.522Z,74.10
2017-09-27T21:05:11.784Z,74.30
2017-09-27T21:07:40.061Z,74.20
2017-09-27T21:10:08.322Z,73.90
2017-09-27T21:12:35.840Z,73.90
2017-09-27T21:15:03.334Z,74.10
2017-09-27T21:17:30.853Z,74.10
2017-09-27T21:19:58.354Z,74.40
2017-09-27T21:22:25.850Z,74.30
2017-09-27T21:24:53.369Z,74.60
2017-09-27T21:27:20.861Z,74.70
2017-09-27T21:29:48.377Z,74.60
2017-09-27T21:32:15.870Z,74.60
2017-09-27T21:34:44.150Z,74.60
2017-09-27T21:37:12.410Z,74.60
2017-09-27T21:39:39.922Z,74.60
2017-09-27T21:42:07.417Z,75.00
2017-09-27T21:44:34.930Z,75.00
2017-09-27T21:47:02.421Z,74.70
2017-09-27T21:49:29.939Z,74.90
2017-09-27T21:51:57.438Z,75.00
2017-09-27T21:54:24.957Z,75.20
2017-09-27T21:56:52.450Z,76.00
2017-09-27T21:59:19.967Z,75.50
2017-09-27T22:01:47.457Z,75.30
2017-09-27T22:04:15.003Z,75.50
2017-09-27T22:06:42.494Z,75.40
2017-09-27T22:09:10.006Z,75.30
2017-09-27T22:11:37.505Z,75.40
2017-09-27T22:14:05.019Z,75.60
2017-09-27T22:16:32.550Z,75.30
2017-09-27T22:19:00.829Z,75.20
2017-09-27T22:21:28.346Z,75.20
2017-09-27T22:23:55.858Z,75.40
2017-09-27T22:26:24.117Z,75.70
2017-09-27T22:28:52.402Z,75.50
2017-09-27T22:31:20.658Z,75.40
2017-09-27T22:33:48.178Z,76.20
2017-09-27T22:36:15.671Z,75.90
2017-09-27T22:38:43.189Z,76.10
2017-09-27T22:41:10.686Z,76.80
2017-09-27T22:43:38.206Z,76.70
2017-09-27T22:46:05.697Z,76.30
2017-09-27T22:48:33.210Z,76.20
2017-09-27T22:51:00.706Z,76.50
2017-09-27T22:53:28.221Z,76.60
2017-09-27T22:55:55.741Z,76.80
2017-09-27T22:58:23.293Z,77.20
2017-09-27T23:00:50.786Z,78.20
2017-09-27T23:03:19.069Z,78.70
2017-09-27T23:05:46.562Z,78.60
2017-09-27T23:08:14.078Z,78.20
2017-09-27T23:10:42.339Z,77.70
2017-09-27T23:13:10.627Z,77.70
2017-09-27T23:15:38.885Z,77.90
2017-09-27T23:18:07.178Z,78.50
2017-09-27T23:20:35.442Z,77.30
2017-09-27T23:23:02.964Z,77.30
2017-09-27T23:25:30.463Z,77.20
2017-09-27T23:27:58.741Z,77.10
2017-09-27T23:30:27.003Z,77.00
2017-09-27T23:32:54.522Z,76.90
2017-09-27T23:35:22.018Z,76.90
2017-09-27T23:37:49.543Z,77.10
2017-09-27T23:40:17.034Z,77.10
2017-09-27T23:42:44.549Z,76.80
2017-09-27T23:45:12.063Z,76.80
2017-09-27T23:47:39.582Z,77.20
2017-09-27T23:50:07.073Z,77.50
2017-09-27T23:52:34.586Z,77.50
2017-09-27T23:55:02.081Z,77.50
2017-09-27T23:57:29.605Z,77.50
2017-09-27T23:59:57.098Z,77.50
